sensor_id;sensor_type;location;lat;lon;timestamp;P1;durP1;ratioP1;P2;durP2;ratioP2
25721;SDS011;13578;53.450;15.496;2023-05-07T00:02:16;15.02;;;7.32;;
25721;SDS011;13578;53.450;15.496;2023-05-07T00:05:17;14.50;;;6.82;;
25721;SDS011;13578;53.450;15.496;2023-05-07T00:08:18;10.23;;;6.47;;
25721;SDS011;13578;53.450;15.496;2023-05-07T00:11:19;13.20;;;7.18;;
25721;SDS011;13578;53.450;15.496;2023-05-07T00:14:19;11.07;;;6.95;;
25721;SDS011;13578;53.450;15.496;2023-05-07T00:17:20;13.63;;;7.47;;
25721;SDS011;13578;53.450;15.496;2023-05-07T00:20:21;28.63;;;6.97;;
25721;SDS011;13578;53.450;15.496;2023-05-07T00:23:22;11.38;;;6.88;;
25721;SDS011;13578;53.450;15.496;2023-05-07T00:26:23;13.98;;;6.90;;
25721;SDS011;13578;53.450;15.496;2023-05-07T00:29:23;9.43;;;6.45;;
25721;SDS011;13578;53.450;15.496;2023-05-07T00:32:24;10.18;;;6.68;;
25721;SDS011;13578;53.450;15.496;2023-05-07T00:35:25;17.25;;;7.10;;
25721;SDS011;13578;53.450;15.496;2023-05-07T00:38:25;12.82;;;7.57;;
25721;SDS011;13578;53.450;15.496;2023-05-07T00:41:26;17.30;;;7.70;;
25721;SDS011;13578;53.450;15.496;2023-05-07T00:44:26;14.05;;;7.68;;
25721;SDS011;13578;53.450;15.496;2023-05-07T00:47:28;14.75;;;7.20;;
25721;SDS011;13578;53.450;15.496;2023-05-07T00:50:29;12.13;;;7.20;;
25721;SDS011;13578;53.450;15.496;2023-05-07T00:53:29;11.65;;;6.97;;
25721;SDS011;13578;53.450;15.496;2023-05-07T00:56:31;13.07;;;7.03;;
25721;SDS011;13578;53.450;15.496;2023-05-07T00:59:32;10.40;;;6.97;;
25721;SDS011;13578;53.450;15.496;2023-05-07T01:02:33;14.77;;;6.78;;
25721;SDS011;13578;53.450;15.496;2023-05-07T01:05:33;12.27;;;7.32;;
25721;SDS011;13578;53.450;15.496;2023-05-07T01:08:35;12.77;;;7.05;;
25721;SDS011;13578;53.450;15.496;2023-05-07T01:11:36;11.02;;;7.32;;
25721;SDS011;13578;53.450;15.496;2023-05-07T01:14:37;14.45;;;7.90;;
25721;SDS011;13578;53.450;15.496;2023-05-07T01:17:38;10.93;;;7.95;;
25721;SDS011;13578;53.450;15.496;2023-05-07T01:20:41;10.73;;;6.82;;
25721;SDS011;13578;53.450;15.496;2023-05-07T01:23:42;14.38;;;7.75;;
25721;SDS011;13578;53.450;15.496;2023-05-07T01:26:44;15.60;;;7.57;;
25721;SDS011;13578;53.450;15.496;2023-05-07T01:29:45;16.65;;;8.85;;
25721;SDS011;13578;53.450;15.496;2023-05-07T01:33:04;10.02;;;7.57;;
25721;SDS011;13578;53.450;15.496;2023-05-07T01:36:09;13.75;;;7.32;;
25721;SDS011;13578;53.450;15.496;2023-05-07T01:39:11;9.68;;;6.90;;
25721;SDS011;13578;53.450;15.496;2023-05-07T01:42:13;10.05;;;7.47;;
25721;SDS011;13578;53.450;15.496;2023-05-07T01:45:14;19.80;;;8.02;;
25721;SDS011;13578;53.450;15.496;2023-05-07T01:48:15;13.65;;;7.68;;
25721;SDS011;13578;53.450;15.496;2023-05-07T01:51:15;10.55;;;7.00;;
25721;SDS011;13578;53.450;15.496;2023-05-07T01:54:16;14.40;;;7.80;;
25721;SDS011;13578;53.450;15.496;2023-05-07T01:57:17;15.68;;;8.07;;
25721;SDS011;13578;53.450;15.496;2023-05-07T02:00:17;13.93;;;8.40;;
25721;SDS011;13578;53.450;15.496;2023-05-07T02:03:19;16.23;;;8.32;;
25721;SDS011;13578;53.450;15.496;2023-05-07T02:06:19;9.98;;;7.20;;
25721;SDS011;13578;53.450;15.496;2023-05-07T02:09:21;13.65;;;8.20;;
25721;SDS011;13578;53.450;15.496;2023-05-07T02:12:22;10.65;;;7.50;;
25721;SDS011;13578;53.450;15.496;2023-05-07T02:15:23;14.63;;;8.00;;
25721;SDS011;13578;53.450;15.496;2023-05-07T02:18:24;15.65;;;6.90;;
25721;SDS011;13578;53.450;15.496;2023-05-07T02:21:24;11.63;;;7.05;;
25721;SDS011;13578;53.450;15.496;2023-05-07T02:24:25;11.70;;;7.85;;
25721;SDS011;13578;53.450;15.496;2023-05-07T02:27:26;12.23;;;7.70;;
25721;SDS011;13578;53.450;15.496;2023-05-07T02:30:26;16.52;;;8.40;;
25721;SDS011;13578;53.450;15.496;2023-05-07T02:33:27;13.07;;;7.75;;
25721;SDS011;13578;53.450;15.496;2023-05-07T02:36:28;12.93;;;8.40;;
25721;SDS011;13578;53.450;15.496;2023-05-07T02:39:28;14.98;;;8.48;;
25721;SDS011;13578;53.450;15.496;2023-05-07T02:42:29;13.75;;;8.00;;
25721;SDS011;13578;53.450;15.496;2023-05-07T02:45:31;12.30;;;7.30;;
25721;SDS011;13578;53.450;15.496;2023-05-07T02:48:32;13.40;;;7.80;;
25721;SDS011;13578;53.450;15.496;2023-05-07T02:51:33;11.52;;;7.75;;
25721;SDS011;13578;53.450;15.496;2023-05-07T02:54:34;12.68;;;7.65;;
25721;SDS011;13578;53.450;15.496;2023-05-07T02:57:35;11.32;;;7.40;;
25721;SDS011;13578;53.450;15.496;2023-05-07T03:00:35;13.82;;;7.90;;
25721;SDS011;13578;53.450;15.496;2023-05-07T03:03:36;10.77;;;7.20;;
25721;SDS011;13578;53.450;15.496;2023-05-07T03:06:37;17.05;;;7.75;;
25721;SDS011;13578;53.450;15.496;2023-05-07T03:09:37;15.65;;;8.13;;
25721;SDS011;13578;53.450;15.496;2023-05-07T03:12:38;16.70;;;8.75;;
25721;SDS011;13578;53.450;15.496;2023-05-07T03:15:39;11.20;;;7.53;;
25721;SDS011;13578;53.450;15.496;2023-05-07T03:18:40;18.95;;;8.35;;
25721;SDS011;13578;53.450;15.496;2023-05-07T03:21:40;16.13;;;7.80;;
25721;SDS011;13578;53.450;15.496;2023-05-07T03:24:41;11.25;;;7.80;;
25721;SDS011;13578;53.450;15.496;2023-05-07T03:27:42;12.95;;;7.75;;
25721;SDS011;13578;53.450;15.496;2023-05-07T03:30:42;10.40;;;7.05;;
25721;SDS011;13578;53.450;15.496;2023-05-07T03:34:16;12.70;;;7.43;;
25721;SDS011;13578;53.450;15.496;2023-05-07T03:37:10;10.65;;;6.68;;
25721;SDS011;13578;53.450;15.496;2023-05-07T03:40:11;11.90;;;7.07;;
25721;SDS011;13578;53.450;15.496;2023-05-07T03:43:12;10.50;;;7.13;;
25721;SDS011;13578;53.450;15.496;2023-05-07T03:46:12;16.02;;;8.32;;
25721;SDS011;13578;53.450;15.496;2023-05-07T03:49:13;17.33;;;7.35;;
25721;SDS011;13578;53.450;15.496;2023-05-07T03:52:14;12.90;;;6.70;;
25721;SDS011;13578;53.450;15.496;2023-05-07T03:55:15;11.85;;;6.70;;
25721;SDS011;13578;53.450;15.496;2023-05-07T03:58:16;17.77;;;7.55;;
25721;SDS011;13578;53.450;15.496;2023-05-07T04:01:16;15.75;;;6.50;;
25721;SDS011;13578;53.450;15.496;2023-05-07T04:04:17;8.50;;;6.28;;
25721;SDS011;13578;53.450;15.496;2023-05-07T04:07:18;12.77;;;6.55;;
25721;SDS011;13578;53.450;15.496;2023-05-07T04:10:19;10.45;;;6.80;;
25721;SDS011;13578;53.450;15.496;2023-05-07T04:13:19;15.23;;;6.57;;
25721;SDS011;13578;53.450;15.496;2023-05-07T04:16:20;11.32;;;6.47;;
25721;SDS011;13578;53.450;15.496;2023-05-07T04:19:21;11.15;;;6.25;;
25721;SDS011;13578;53.450;15.496;2023-05-07T04:22:22;9.52;;;5.55;;
25721;SDS011;13578;53.450;15.496;2023-05-07T04:25:23;10.05;;;6.25;;
25721;SDS011;13578;53.450;15.496;2023-05-07T04:28:26;13.20;;;6.15;;
25721;SDS011;13578;53.450;15.496;2023-05-07T04:31:27;10.07;;;6.38;;
25721;SDS011;13578;53.450;15.496;2023-05-07T04:34:27;15.80;;;5.97;;
25721;SDS011;13578;53.450;15.496;2023-05-07T04:37:28;9.98;;;6.07;;
25721;SDS011;13578;53.450;15.496;2023-05-07T04:40:29;14.15;;;6.60;;
25721;SDS011;13578;53.450;15.496;2023-05-07T04:43:30;11.82;;;6.38;;
25721;SDS011;13578;53.450;15.496;2023-05-07T04:46:30;11.48;;;6.05;;
25721;SDS011;13578;53.450;15.496;2023-05-07T04:49:31;16.02;;;7.00;;
25721;SDS011;13578;53.450;15.496;2023-05-07T04:52:32;19.98;;;6.25;;
25721;SDS011;13578;53.450;15.496;2023-05-07T04:55:32;12.18;;;6.10;;
25721;SDS011;13578;53.450;15.496;2023-05-07T04:58:33;10.75;;;5.82;;
25721;SDS011;13578;53.450;15.496;2023-05-07T05:01:34;20.67;;;6.47;;
25721;SDS011;13578;53.450;15.496;2023-05-07T05:04:34;14.02;;;5.47;;
25721;SDS011;13578;53.450;15.496;2023-05-07T05:07:35;11.43;;;5.82;;
25721;SDS011;13578;53.450;15.496;2023-05-07T05:10:36;9.88;;;5.50;;
25721;SDS011;13578;53.450;15.496;2023-05-07T05:13:36;10.35;;;5.00;;
25721;SDS011;13578;53.450;15.496;2023-05-07T05:16:37;15.02;;;6.07;;
25721;SDS011;13578;53.450;15.496;2023-05-07T05:19:37;15.85;;;6.10;;
25721;SDS011;13578;53.450;15.496;2023-05-07T05:22:38;9.82;;;5.57;;
25721;SDS011;13578;53.450;15.496;2023-05-07T05:25:39;9.38;;;5.28;;
25721;SDS011;13578;53.450;15.496;2023-05-07T05:28:40;11.27;;;5.82;;
25721;SDS011;13578;53.450;15.496;2023-05-07T05:31:41;9.75;;;4.97;;
25721;SDS011;13578;53.450;15.496;2023-05-07T05:34:41;7.63;;;4.93;;
25721;SDS011;13578;53.450;15.496;2023-05-07T05:37:42;11.35;;;5.72;;
25721;SDS011;13578;53.450;15.496;2023-05-07T05:40:42;10.05;;;5.05;;
25721;SDS011;13578;53.450;15.496;2023-05-07T05:43:43;8.43;;;6.22;;
25721;SDS011;13578;53.450;15.496;2023-05-07T05:46:44;6.90;;;4.43;;
25721;SDS011;13578;53.450;15.496;2023-05-07T05:49:44;10.45;;;4.85;;
25721;SDS011;13578;53.450;15.496;2023-05-07T05:52:45;9.35;;;5.25;;
25721;SDS011;13578;53.450;15.496;2023-05-07T05:55:45;7.40;;;4.88;;
25721;SDS011;13578;53.450;15.496;2023-05-07T05:58:46;12.25;;;4.90;;
25721;SDS011;13578;53.450;15.496;2023-05-07T06:01:47;8.77;;;5.15;;
25721;SDS011;13578;53.450;15.496;2023-05-07T06:04:48;9.88;;;4.43;;
25721;SDS011;13578;53.450;15.496;2023-05-07T06:07:48;9.07;;;4.72;;
25721;SDS011;13578;53.450;15.496;2023-05-07T06:10:49;18.60;;;5.70;;
25721;SDS011;13578;53.450;15.496;2023-05-07T06:13:50;6.55;;;4.65;;
25721;SDS011;13578;53.450;15.496;2023-05-07T06:16:50;8.75;;;5.03;;
25721;SDS011;13578;53.450;15.496;2023-05-07T06:19:51;8.05;;;4.70;;
25721;SDS011;13578;53.450;15.496;2023-05-07T06:22:52;7.07;;;3.65;;
25721;SDS011;13578;53.450;15.496;2023-05-07T06:25:53;7.90;;;4.30;;
25721;SDS011;13578;53.450;15.496;2023-05-07T06:28:53;8.95;;;4.82;;
25721;SDS011;13578;53.450;15.496;2023-05-07T06:31:54;8.40;;;4.60;;
25721;SDS011;13578;53.450;15.496;2023-05-07T06:34:55;11.70;;;4.72;;
25721;SDS011;13578;53.450;15.496;2023-05-07T06:37:55;9.48;;;4.97;;
25721;SDS011;13578;53.450;15.496;2023-05-07T06:40:56;11.95;;;4.90;;
25721;SDS011;13578;53.450;15.496;2023-05-07T06:43:57;8.18;;;3.95;;
25721;SDS011;13578;53.450;15.496;2023-05-07T06:46:57;7.15;;;3.97;;
25721;SDS011;13578;53.450;15.496;2023-05-07T06:49:58;10.77;;;4.47;;
25721;SDS011;13578;53.450;15.496;2023-05-07T06:52:59;7.53;;;3.88;;
25721;SDS011;13578;53.450;15.496;2023-05-07T06:55:59;6.97;;;3.97;;
25721;SDS011;13578;53.450;15.496;2023-05-07T06:59:01;6.20;;;4.28;;
25721;SDS011;13578;53.450;15.496;2023-05-07T07:02:02;4.82;;;3.60;;
25721;SDS011;13578;53.450;15.496;2023-05-07T07:05:03;8.80;;;3.95;;
25721;SDS011;13578;53.450;15.496;2023-05-07T07:08:03;6.72;;;3.47;;
25721;SDS011;13578;53.450;15.496;2023-05-07T07:11:05;5.57;;;3.30;;
25721;SDS011;13578;53.450;15.496;2023-05-07T07:14:06;5.80;;;3.10;;
25721;SDS011;13578;53.450;15.496;2023-05-07T07:17:07;5.22;;;3.33;;
25721;SDS011;13578;53.450;15.496;2023-05-07T07:20:07;4.03;;;3.25;;
25721;SDS011;13578;53.450;15.496;2023-05-07T07:23:08;6.57;;;3.45;;
25721;SDS011;13578;53.450;15.496;2023-05-07T07:26:09;5.32;;;3.08;;
25721;SDS011;13578;53.450;15.496;2023-05-07T07:29:10;5.47;;;3.03;;
25721;SDS011;13578;53.450;15.496;2023-05-07T07:32:10;5.28;;;3.03;;
25721;SDS011;13578;53.450;15.496;2023-05-07T07:35:11;5.68;;;3.00;;
25721;SDS011;13578;53.450;15.496;2023-05-07T07:38:11;14.50;;;3.60;;
25721;SDS011;13578;53.450;15.496;2023-05-07T07:41:12;10.18;;;2.55;;
25721;SDS011;13578;53.450;15.496;2023-05-07T07:44:13;12.18;;;3.20;;
25721;SDS011;13578;53.450;15.496;2023-05-07T07:47:13;6.70;;;3.53;;
25721;SDS011;13578;53.450;15.496;2023-05-07T07:50:14;4.97;;;3.03;;
25721;SDS011;13578;53.450;15.496;2023-05-07T07:53:15;6.68;;;3.42;;
25721;SDS011;13578;53.450;15.496;2023-05-07T07:56:15;5.10;;;3.08;;
25721;SDS011;13578;53.450;15.496;2023-05-07T07:59:16;4.93;;;2.58;;
25721;SDS011;13578;53.450;15.496;2023-05-07T08:02:18;3.13;;;2.22;;
25721;SDS011;13578;53.450;15.496;2023-05-07T08:05:19;3.97;;;2.22;;
25721;SDS011;13578;53.450;15.496;2023-05-07T08:08:20;3.92;;;2.22;;
25721;SDS011;13578;53.450;15.496;2023-05-07T08:11:20;3.75;;;2.25;;
25721;SDS011;13578;53.450;15.496;2023-05-07T08:14:21;3.80;;;1.70;;
25721;SDS011;13578;53.450;15.496;2023-05-07T08:17:22;3.17;;;1.67;;
25721;SDS011;13578;53.450;15.496;2023-05-07T08:20:23;4.70;;;2.20;;
25721;SDS011;13578;53.450;15.496;2023-05-07T08:23:24;6.78;;;2.42;;
25721;SDS011;13578;53.450;15.496;2023-05-07T08:26:24;12.80;;;2.30;;
25721;SDS011;13578;53.450;15.496;2023-05-07T08:29:25;6.10;;;2.28;;
25721;SDS011;13578;53.450;15.496;2023-05-07T08:32:26;4.30;;;2.42;;
25721;SDS011;13578;53.450;15.496;2023-05-07T08:35:26;10.38;;;2.20;;
25721;SDS011;13578;53.450;15.496;2023-05-07T08:38:28;6.20;;;1.70;;
25721;SDS011;13578;53.450;15.496;2023-05-07T08:41:29;2.95;;;1.65;;
25721;SDS011;13578;53.450;15.496;2023-05-07T08:44:32;8.18;;;2.17;;
25721;SDS011;13578;53.450;15.496;2023-05-07T08:47:35;4.43;;;1.70;;
25721;SDS011;13578;53.450;15.496;2023-05-07T08:50:43;5.22;;;1.55;;
25721;SDS011;13578;53.450;15.496;2023-05-07T08:53:44;2.00;;;1.33;;
25721;SDS011;13578;53.450;15.496;2023-05-07T08:56:45;5.70;;;1.35;;
25721;SDS011;13578;53.450;15.496;2023-05-07T08:59:45;2.33;;;1.38;;
25721;SDS011;13578;53.450;15.496;2023-05-07T09:02:46;3.65;;;1.70;;
25721;SDS011;13578;53.450;15.496;2023-05-07T09:05:47;3.17;;;1.30;;
25721;SDS011;13578;53.450;15.496;2023-05-07T09:08:51;3.67;;;1.45;;
25721;SDS011;13578;53.450;15.496;2023-05-07T09:11:57;4.43;;;1.17;;
25721;SDS011;13578;53.450;15.496;2023-05-07T09:15:02;6.50;;;1.40;;
25721;SDS011;13578;53.450;15.496;2023-05-07T09:18:03;3.00;;;1.50;;
25721;SDS011;13578;53.450;15.496;2023-05-07T09:21:03;3.40;;;1.38;;
25721;SDS011;13578;53.450;15.496;2023-05-07T09:24:04;3.05;;;1.45;;
25721;SDS011;13578;53.450;15.496;2023-05-07T09:27:05;5.05;;;1.52;;
25721;SDS011;13578;53.450;15.496;2023-05-07T09:30:07;2.35;;;0.98;;
25721;SDS011;13578;53.450;15.496;2023-05-07T09:33:08;1.80;;;0.95;;
25721;SDS011;13578;53.450;15.496;2023-05-07T09:36:09;6.05;;;1.23;;
25721;SDS011;13578;53.450;15.496;2023-05-07T09:39:11;2.20;;;1.38;;
25721;SDS011;13578;53.450;15.496;2023-05-07T09:42:13;3.55;;;1.20;;
25721;SDS011;13578;53.450;15.496;2023-05-07T09:45:26;4.60;;;1.08;;
25721;SDS011;13578;53.450;15.496;2023-05-07T09:48:28;3.50;;;1.38;;
25721;SDS011;13578;53.450;15.496;2023-05-07T09:51:49;1.92;;;1.13;;
25721;SDS011;13578;53.450;15.496;2023-05-07T09:54:51;3.85;;;1.27;;
25721;SDS011;13578;53.450;15.496;2023-05-07T09:57:55;7.47;;;1.55;;
25721;SDS011;13578;53.450;15.496;2023-05-07T10:00:57;3.38;;;1.48;;
25721;SDS011;13578;53.450;15.496;2023-05-07T10:03:58;5.97;;;1.52;;
25721;SDS011;13578;53.450;15.496;2023-05-07T10:06:59;4.15;;;1.50;;
25721;SDS011;13578;53.450;15.496;2023-05-07T10:10:01;5.13;;;1.00;;
25721;SDS011;13578;53.450;15.496;2023-05-07T10:13:03;2.17;;;1.25;;
25721;SDS011;13578;53.450;15.496;2023-05-07T10:16:05;2.75;;;1.45;;
25721;SDS011;13578;53.450;15.496;2023-05-07T10:19:08;1.63;;;1.10;;
25721;SDS011;13578;53.450;15.496;2023-05-07T10:22:12;2.90;;;1.10;;
25721;SDS011;13578;53.450;15.496;2023-05-07T10:28:22;4.10;;;1.10;;
25721;SDS011;13578;53.450;15.496;2023-05-07T10:34:54;3.63;;;1.05;;
25721;SDS011;13578;53.450;15.496;2023-05-07T10:37:59;3.67;;;1.17;;
25721;SDS011;13578;53.450;15.496;2023-05-07T10:41:00;2.00;;;0.90;;
25721;SDS011;13578;53.450;15.496;2023-05-07T10:44:01;2.33;;;1.05;;
25721;SDS011;13578;53.450;15.496;2023-05-07T10:47:15;4.60;;;1.08;;
25721;SDS011;13578;53.450;15.496;2023-05-07T10:50:21;2.25;;;1.08;;
25721;SDS011;13578;53.450;15.496;2023-05-07T10:53:23;2.10;;;1.02;;
25721;SDS011;13578;53.450;15.496;2023-05-07T10:56:27;3.63;;;1.30;;
25721;SDS011;13578;53.450;15.496;2023-05-07T10:59:31;3.25;;;1.20;;
25721;SDS011;13578;53.450;15.496;2023-05-07T11:06:15;1.67;;;0.80;;
25721;SDS011;13578;53.450;15.496;2023-05-07T11:09:16;1.45;;;0.80;;
25721;SDS011;13578;53.450;15.496;2023-05-07T11:15:36;2.35;;;1.10;;
25721;SDS011;13578;53.450;15.496;2023-05-07T11:18:45;4.32;;;1.45;;
25721;SDS011;13578;53.450;15.496;2023-05-07T11:21:50;4.95;;;1.40;;
25721;SDS011;13578;53.450;15.496;2023-05-07T11:24:51;5.93;;;1.42;;
25721;SDS011;13578;53.450;15.496;2023-05-07T11:27:52;2.53;;;1.10;;
25721;SDS011;13578;53.450;15.496;2023-05-07T11:30:54;2.25;;;0.95;;
25721;SDS011;13578;53.450;15.496;2023-05-07T11:33:55;2.30;;;0.95;;
25721;SDS011;13578;53.450;15.496;2023-05-07T11:36:56;1.65;;;1.05;;
25721;SDS011;13578;53.450;15.496;2023-05-07T11:40:05;4.70;;;1.23;;
25721;SDS011;13578;53.450;15.496;2023-05-07T11:43:10;6.25;;;1.20;;
25721;SDS011;13578;53.450;15.496;2023-05-07T11:46:11;5.78;;;1.83;;
25721;SDS011;13578;53.450;15.496;2023-05-07T11:49:14;3.72;;;1.02;;
25721;SDS011;13578;53.450;15.496;2023-05-07T11:52:16;2.95;;;0.77;;
25721;SDS011;13578;53.450;15.496;2023-05-07T11:55:18;3.00;;;0.90;;
25721;SDS011;13578;53.450;15.496;2023-05-07T11:58:23;4.28;;;1.00;;
25721;SDS011;13578;53.450;15.496;2023-05-07T12:01:25;3.72;;;1.52;;
25721;SDS011;13578;53.450;15.496;2023-05-07T12:04:26;2.28;;;1.00;;
25721;SDS011;13578;53.450;15.496;2023-05-07T12:07:26;2.88;;;1.35;;
25721;SDS011;13578;53.450;15.496;2023-05-07T12:10:27;1.73;;;1.02;;
25721;SDS011;13578;53.450;15.496;2023-05-07T12:13:28;2.10;;;1.00;;
25721;SDS011;13578;53.450;15.496;2023-05-07T12:16:29;4.18;;;1.15;;
25721;SDS011;13578;53.450;15.496;2023-05-07T12:19:30;1.60;;;0.85;;
25721;SDS011;13578;53.450;15.496;2023-05-07T12:22:31;4.13;;;1.10;;
25721;SDS011;13578;53.450;15.496;2023-05-07T12:25:36;4.00;;;1.60;;
25721;SDS011;13578;53.450;15.496;2023-05-07T12:28:38;4.15;;;1.30;;
25721;SDS011;13578;53.450;15.496;2023-05-07T12:31:43;2.38;;;1.27;;
25721;SDS011;13578;53.450;15.496;2023-05-07T12:34:44;1.52;;;1.02;;
25721;SDS011;13578;53.450;15.496;2023-05-07T12:37:54;3.88;;;1.00;;
25721;SDS011;13578;53.450;15.496;2023-05-07T12:40:55;2.72;;;1.20;;
25721;SDS011;13578;53.450;15.496;2023-05-07T12:43:56;1.48;;;0.63;;
25721;SDS011;13578;53.450;15.496;2023-05-07T12:46:58;3.30;;;1.20;;
25721;SDS011;13578;53.450;15.496;2023-05-07T12:50:02;3.10;;;1.23;;
25721;SDS011;13578;53.450;15.496;2023-05-07T12:53:05;1.98;;;1.10;;
25721;SDS011;13578;53.450;15.496;2023-05-07T12:56:08;2.72;;;0.90;;
25721;SDS011;13578;53.450;15.496;2023-05-07T12:59:09;3.95;;;1.20;;
25721;SDS011;13578;53.450;15.496;2023-05-07T13:02:10;4.13;;;0.90;;
25721;SDS011;13578;53.450;15.496;2023-05-07T13:05:11;2.80;;;1.00;;
25721;SDS011;13578;53.450;15.496;2023-05-07T13:08:12;6.15;;;0.85;;
25721;SDS011;13578;53.450;15.496;2023-05-07T13:11:23;2.38;;;1.02;;
25721;SDS011;13578;53.450;15.496;2023-05-07T13:14:27;2.97;;;1.10;;
25721;SDS011;13578;53.450;15.496;2023-05-07T13:17:29;2.50;;;1.27;;
25721;SDS011;13578;53.450;15.496;2023-05-07T13:20:31;2.63;;;1.33;;
25721;SDS011;13578;53.450;15.496;2023-05-07T13:23:33;2.28;;;1.02;;
25721;SDS011;13578;53.450;15.496;2023-05-07T13:26:34;2.90;;;1.15;;
25721;SDS011;13578;53.450;15.496;2023-05-07T13:29:35;1.92;;;0.90;;
25721;SDS011;13578;53.450;15.496;2023-05-07T13:32:35;1.85;;;1.05;;
25721;SDS011;13578;53.450;15.496;2023-05-07T13:35:36;2.85;;;1.05;;
25721;SDS011;13578;53.450;15.496;2023-05-07T13:38:37;2.88;;;1.00;;
25721;SDS011;13578;53.450;15.496;2023-05-07T13:41:39;4.13;;;0.80;;
25721;SDS011;13578;53.450;15.496;2023-05-07T13:44:40;2.63;;;0.77;;
25721;SDS011;13578;53.450;15.496;2023-05-07T13:47:44;6.70;;;1.48;;
25721;SDS011;13578;53.450;15.496;2023-05-07T13:50:45;1.98;;;1.05;;
25721;SDS011;13578;53.450;15.496;2023-05-07T13:53:45;5.25;;;1.48;;
25721;SDS011;13578;53.450;15.496;2023-05-07T13:56:46;3.45;;;1.20;;
25721;SDS011;13578;53.450;15.496;2023-05-07T13:59:47;2.13;;;0.90;;
25721;SDS011;13578;53.450;15.496;2023-05-07T14:02:48;2.35;;;1.17;;
25721;SDS011;13578;53.450;15.496;2023-05-07T14:05:48;2.05;;;1.02;;
25721;SDS011;13578;53.450;15.496;2023-05-07T14:08:49;4.50;;;1.20;;
25721;SDS011;13578;53.450;15.496;2023-05-07T14:11:50;2.10;;;1.00;;
25721;SDS011;13578;53.450;15.496;2023-05-07T14:14:51;4.20;;;1.15;;
25721;SDS011;13578;53.450;15.496;2023-05-07T14:17:56;4.93;;;1.15;;
25721;SDS011;13578;53.450;15.496;2023-05-07T14:20:59;2.80;;;1.02;;
25721;SDS011;13578;53.450;15.496;2023-05-07T14:24:01;2.13;;;1.42;;
25721;SDS011;13578;53.450;15.496;2023-05-07T14:27:02;4.65;;;1.00;;
25721;SDS011;13578;53.450;15.496;2023-05-07T14:30:02;4.68;;;1.60;;
25721;SDS011;13578;53.450;15.496;2023-05-07T14:33:03;4.70;;;1.40;;
25721;SDS011;13578;53.450;15.496;2023-05-07T14:36:04;1.90;;;0.93;;
25721;SDS011;13578;53.450;15.496;2023-05-07T14:39:04;2.45;;;1.10;;
25721;SDS011;13578;53.450;15.496;2023-05-07T14:42:06;2.17;;;1.00;;
25721;SDS011;13578;53.450;15.496;2023-05-07T14:45:08;6.05;;;1.27;;
25721;SDS011;13578;53.450;15.496;2023-05-07T14:48:09;3.63;;;1.25;;
25721;SDS011;13578;53.450;15.496;2023-05-07T14:51:15;3.75;;;1.30;;
25721;SDS011;13578;53.450;15.496;2023-05-07T14:54:15;4.55;;;0.93;;
25721;SDS011;13578;53.450;15.496;2023-05-07T14:57:16;4.82;;;1.42;;
25721;SDS011;13578;53.450;15.496;2023-05-07T15:00:21;1.38;;;0.82;;
25721;SDS011;13578;53.450;15.496;2023-05-07T15:03:22;3.90;;;1.27;;
25721;SDS011;13578;53.450;15.496;2023-05-07T15:06:23;5.30;;;1.25;;
25721;SDS011;13578;53.450;15.496;2023-05-07T15:09:24;2.25;;;0.95;;
25721;SDS011;13578;53.450;15.496;2023-05-07T15:12:24;1.58;;;0.95;;
25721;SDS011;13578;53.450;15.496;2023-05-07T15:15:25;2.60;;;0.90;;
25721;SDS011;13578;53.450;15.496;2023-05-07T15:18:26;3.55;;;1.15;;
25721;SDS011;13578;53.450;15.496;2023-05-07T15:21:26;3.80;;;1.67;;
25721;SDS011;13578;53.450;15.496;2023-05-07T15:24:30;2.97;;;1.45;;
25721;SDS011;13578;53.450;15.496;2023-05-07T15:27:31;5.15;;;1.77;;
25721;SDS011;13578;53.450;15.496;2023-05-07T15:30:32;3.33;;;1.10;;
25721;SDS011;13578;53.450;15.496;2023-05-07T15:33:33;2.58;;;1.10;;
25721;SDS011;13578;53.450;15.496;2023-05-07T15:36:34;1.95;;;1.20;;
25721;SDS011;13578;53.450;15.496;2023-05-07T15:39:34;3.95;;;1.25;;
25721;SDS011;13578;53.450;15.496;2023-05-07T15:42:38;5.60;;;1.45;;
25721;SDS011;13578;53.450;15.496;2023-05-07T15:45:39;5.63;;;1.20;;
25721;SDS011;13578;53.450;15.496;2023-05-07T15:48:41;2.05;;;1.08;;
25721;SDS011;13578;53.450;15.496;2023-05-07T15:51:42;2.45;;;0.80;;
25721;SDS011;13578;53.450;15.496;2023-05-07T15:54:42;3.88;;;1.40;;
25721;SDS011;13578;53.450;15.496;2023-05-07T15:57:43;4.97;;;1.50;;
25721;SDS011;13578;53.450;15.496;2023-05-07T16:00:44;2.65;;;0.90;;
25721;SDS011;13578;53.450;15.496;2023-05-07T16:03:44;2.95;;;1.17;;
25721;SDS011;13578;53.450;15.496;2023-05-07T16:06:45;6.15;;;1.45;;
25721;SDS011;13578;53.450;15.496;2023-05-07T16:09:48;2.63;;;1.30;;
25721;SDS011;13578;53.450;15.496;2023-05-07T16:12:49;2.10;;;1.20;;
25721;SDS011;13578;53.450;15.496;2023-05-07T16:15:54;5.03;;;1.20;;
25721;SDS011;13578;53.450;15.496;2023-05-07T16:18:56;2.13;;;1.10;;
25721;SDS011;13578;53.450;15.496;2023-05-07T16:21:56;4.72;;;1.27;;
25721;SDS011;13578;53.450;15.496;2023-05-07T16:24:57;2.53;;;1.17;;
25721;SDS011;13578;53.450;15.496;2023-05-07T16:27:58;7.75;;;1.55;;
25721;SDS011;13578;53.450;15.496;2023-05-07T16:30:58;2.45;;;1.10;;
25721;SDS011;13578;53.450;15.496;2023-05-07T16:34:00;4.05;;;1.27;;
25721;SDS011;13578;53.450;15.496;2023-05-07T16:37:02;4.45;;;1.10;;
25721;SDS011;13578;53.450;15.496;2023-05-07T16:40:04;3.38;;;1.35;;
25721;SDS011;13578;53.450;15.496;2023-05-07T16:43:06;5.50;;;1.10;;
25721;SDS011;13578;53.450;15.496;2023-05-07T16:46:07;3.58;;;1.27;;
25721;SDS011;13578;53.450;15.496;2023-05-07T16:49:12;8.17;;;1.40;;
25721;SDS011;13578;53.450;15.496;2023-05-07T16:52:12;2.35;;;1.08;;
25721;SDS011;13578;53.450;15.496;2023-05-07T16:55:13;3.15;;;1.38;;
25721;SDS011;13578;53.450;15.496;2023-05-07T16:58:14;2.05;;;1.20;;
25721;SDS011;13578;53.450;15.496;2023-05-07T17:01:15;4.45;;;1.10;;
25721;SDS011;13578;53.450;15.496;2023-05-07T17:04:17;4.53;;;1.52;;
25721;SDS011;13578;53.450;15.496;2023-05-07T17:07:18;2.67;;;1.05;;
25721;SDS011;13578;53.450;15.496;2023-05-07T17:10:19;2.45;;;1.20;;
25721;SDS011;13578;53.450;15.496;2023-05-07T17:13:20;1.98;;;1.10;;
25721;SDS011;13578;53.450;15.496;2023-05-07T17:16:20;6.75;;;1.50;;
25721;SDS011;13578;53.450;15.496;2023-05-07T17:19:21;1.55;;;1.00;;
25721;SDS011;13578;53.450;15.496;2023-05-07T17:22:22;2.38;;;1.27;;
25721;SDS011;13578;53.450;15.496;2023-05-07T17:25:24;1.90;;;1.00;;
25721;SDS011;13578;53.450;15.496;2023-05-07T17:28:24;2.85;;;1.20;;
25721;SDS011;13578;53.450;15.496;2023-05-07T17:31:25;3.85;;;1.10;;
25721;SDS011;13578;53.450;15.496;2023-05-07T17:34:26;4.32;;;1.40;;
25721;SDS011;13578;53.450;15.496;2023-05-07T17:37:27;12.13;;;1.20;;
25721;SDS011;13578;53.450;15.496;2023-05-07T17:40:28;2.25;;;1.20;;
25721;SDS011;13578;53.450;15.496;2023-05-07T17:43:28;2.33;;;1.13;;
25721;SDS011;13578;53.450;15.496;2023-05-07T17:46:29;2.08;;;1.10;;
25721;SDS011;13578;53.450;15.496;2023-05-07T17:49:29;2.65;;;1.02;;
25721;SDS011;13578;53.450;15.496;2023-05-07T17:52:30;2.78;;;1.17;;
25721;SDS011;13578;53.450;15.496;2023-05-07T17:55:31;3.75;;;1.33;;
25721;SDS011;13578;53.450;15.496;2023-05-07T17:58:32;3.45;;;1.00;;
25721;SDS011;13578;53.450;15.496;2023-05-07T18:01:33;2.83;;;1.10;;
25721;SDS011;13578;53.450;15.496;2023-05-07T18:04:33;2.15;;;1.20;;
25721;SDS011;13578;53.450;15.496;2023-05-07T18:07:34;3.10;;;1.23;;